createdAt,value
2022-10-23T00:00:14.062Z,0.68
2022-10-23T00:02:41.017Z,0.82
2022-10-23T00:05:08.070Z,0.63
2022-10-23T00:07:34.540Z,0.60
2022-10-23T00:10:01.154Z,0.82
2022-10-23T00:12:27.611Z,1.05
2022-10-23T00:14:54.068Z,0.95
2022-10-23T00:17:20.631Z,0.85
2022-10-23T00:19:47.131Z,0.90
2022-10-23T00:22:13.611Z,1.00
2022-10-23T00:24:40.104Z,0.60
2022-10-23T00:27:06.708Z,0.77
2022-10-23T00:29:33.173Z,0.70
2022-10-23T00:31:59.678Z,0.73
2022-10-23T00:34:26.218Z,0.95
2022-10-23T00:36:52.761Z,0.60
2022-10-23T00:39:19.247Z,0.55
2022-10-23T00:41:45.872Z,0.77
2022-10-23T00:44:18.321Z,1.20
2022-10-23T00:46:44.863Z,0.77
2022-10-23T00:51:43.236Z,0.60
2022-10-23T00:54:23.362Z,0.70
2022-10-23T00:56:52.651Z,0.63
2022-10-23T00:59:19.109Z,0.77
2022-10-23T01:01:45.789Z,0.60
2022-10-23T01:04:12.574Z,0.70
2022-10-23T01:07:29.524Z,0.85
2022-10-23T01:10:02.126Z,0.63
2022-10-23T01:12:41.569Z,0.85
2022-10-23T01:18:10.129Z,0.95
2022-10-23T01:20:42.690Z,0.65
2022-10-23T01:23:27.945Z,0.73
2022-10-23T01:26:22.762Z,0.60
2022-10-23T01:29:02.881Z,0.70
2022-10-23T01:32:13.391Z,0.90
2022-10-23T01:34:50.887Z,0.95
2022-10-23T01:37:25.231Z,0.75
2022-10-23T01:39:55.666Z,1.00
2022-10-23T01:42:29.481Z,0.70
2022-10-23T01:45:13.418Z,0.75
2022-10-23T01:47:45.499Z,0.77
2022-10-23T01:50:16.692Z,0.82
2022-10-23T01:52:46.301Z,0.75
2022-10-23T01:55:14.374Z,0.93
2022-10-23T01:57:44.677Z,1.02
2022-10-23T02:00:14.480Z,0.80
2022-10-23T02:02:55.843Z,0.77
2022-10-23T02:05:47.709Z,0.80
2022-10-23T02:08:17.528Z,0.80
2022-10-23T02:10:52.511Z,0.73
2022-10-23T02:13:44.809Z,0.50
2022-10-23T02:16:21.912Z,1.00
2022-10-23T02:18:51.687Z,0.70
2022-10-23T02:21:44.881Z,0.60
2022-10-23T02:24:16.152Z,0.90
2022-10-23T02:26:57.596Z,0.63
2022-10-23T02:29:43.726Z,0.95
2022-10-23T02:32:13.030Z,1.30
2022-10-23T02:34:40.765Z,0.73
2022-10-23T02:37:09.669Z,0.82
2022-10-23T02:39:36.417Z,1.23
2022-10-23T02:42:15.000Z,1.17
2022-10-23T02:45:05.202Z,0.70
2022-10-23T02:50:32.009Z,1.13
2022-10-23T02:53:23.857Z,0.77
2022-10-23T02:56:09.104Z,0.57
2022-10-23T02:59:05.724Z,0.63
2022-10-23T03:01:41.359Z,0.77
2022-10-23T03:04:09.979Z,0.70
2022-10-23T03:06:37.004Z,0.80
2022-10-23T03:09:10.118Z,0.95
2022-10-23T03:11:38.549Z,0.65
2022-10-23T03:14:05.471Z,0.57
2022-10-23T03:16:32.114Z,0.85
2022-10-23T03:18:58.712Z,0.70
2022-10-23T03:21:26.305Z,0.68
2022-10-23T03:23:53.571Z,0.77
2022-10-23T03:26:28.265Z,0.80
2022-10-23T03:28:54.816Z,0.63
2022-10-23T03:33:54.698Z,0.60
2022-10-23T03:36:21.915Z,0.73
2022-10-23T03:38:48.488Z,0.50
2022-10-23T03:41:15.274Z,0.60
2022-10-23T03:43:41.853Z,0.63
2022-10-23T03:46:08.617Z,0.60
2022-10-23T03:48:35.878Z,0.80
2022-10-23T03:51:02.373Z,0.60
2022-10-23T03:53:28.979Z,0.80
2022-10-23T03:55:55.543Z,0.85
2022-10-23T03:58:21.996Z,0.70
2022-10-23T04:00:49.201Z,0.77
2022-10-23T04:03:15.719Z,0.80
2022-10-23T04:05:43.013Z,0.70
2022-10-23T04:08:10.022Z,0.60
2022-10-23T04:10:37.209Z,0.63
2022-10-23T04:13:03.759Z,0.40
2022-10-23T04:15:35.000Z,0.75
2022-10-23T04:18:02.198Z,0.90
2022-10-23T04:20:31.496Z,0.55
2022-10-23T04:23:01.823Z,0.80
2022-10-23T04:25:28.318Z,0.65
2022-10-23T04:27:54.889Z,0.50
2022-10-23T04:30:21.481Z,0.75
2022-10-23T04:32:50.968Z,0.47
2022-10-23T04:35:18.383Z,0.40
2022-10-23T04:37:46.212Z,0.43
2022-10-23T04:40:12.942Z,0.70
2022-10-23T04:42:39.593Z,0.50
2022-10-23T04:45:06.858Z,0.68
2022-10-23T04:47:34.624Z,0.82
2022-10-23T04:50:02.331Z,0.52
2022-10-23T04:52:58.327Z,0.40
2022-10-23T04:55:53.995Z,0.75
2022-10-23T04:58:30.346Z,0.60
2022-10-23T05:00:58.508Z,0.98
2022-10-23T05:03:26.487Z,0.50
2022-10-23T05:05:55.088Z,0.50
2022-10-23T05:08:24.253Z,0.63
2022-10-23T05:11:13.665Z,0.57
2022-10-23T05:13:44.640Z,0.45
2022-10-23T05:16:21.313Z,0.57
2022-10-23T05:18:48.828Z,0.50
2022-10-23T05:21:24.272Z,0.80
2022-10-23T05:23:51.238Z,0.50
2022-10-23T05:26:18.013Z,0.90
2022-10-23T05:28:46.867Z,0.80
2022-10-23T05:31:19.508Z,0.52
2022-10-23T05:33:50.468Z,0.52
2022-10-23T05:36:20.058Z,0.40
2022-10-23T05:38:50.133Z,0.52
2022-10-23T05:41:18.867Z,0.50
2022-10-23T05:43:46.232Z,0.50
2022-10-23T05:46:32.754Z,0.30
2022-10-23T05:49:11.901Z,0.55
2022-10-23T05:51:56.837Z,0.60
2022-10-23T05:54:35.892Z,0.60
2022-10-23T05:57:34.206Z,0.50
2022-10-23T06:00:05.864Z,0.47
2022-10-23T06:02:50.247Z,0.40
2022-10-23T06:05:34.723Z,0.60
2022-10-23T06:08:31.800Z,0.95
2022-10-23T06:10:58.759Z,0.40
2022-10-23T06:13:25.348Z,0.50
2022-10-23T06:15:51.840Z,0.65
2022-10-23T06:18:26.019Z,0.63
2022-10-23T06:21:00.359Z,0.50
2022-10-23T06:23:27.427Z,0.80
2022-10-23T06:25:59.950Z,0.98
2022-10-23T06:28:40.697Z,0.63
2022-10-23T06:31:11.693Z,0.60
2022-10-23T06:33:38.973Z,0.50
2022-10-23T06:36:06.943Z,0.40
2022-10-23T06:38:33.665Z,0.67
2022-10-23T06:41:00.185Z,0.80
2022-10-23T06:43:34.684Z,0.65
2022-10-23T06:46:17.395Z,0.50
2022-10-23T06:49:06.763Z,0.50
2022-10-23T06:51:40.658Z,0.47
2022-10-23T06:54:11.575Z,0.50
2022-10-23T06:56:50.042Z,0.50
2022-10-23T06:59:30.347Z,0.30
2022-10-23T07:01:57.164Z,0.50
2022-10-23T07:04:23.803Z,0.50
2022-10-23T07:06:50.320Z,0.35
2022-10-23T07:09:24.424Z,0.63
2022-10-23T07:11:50.890Z,0.40
2022-10-23T07:14:18.951Z,0.50
2022-10-23T07:16:45.941Z,0.52
2022-10-23T07:19:13.120Z,0.50
2022-10-23T07:21:56.928Z,0.60
2022-10-23T07:24:46.330Z,0.50
2022-10-23T07:27:22.532Z,0.70
2022-10-23T07:29:55.388Z,0.30
2022-10-23T07:32:22.204Z,0.47
2022-10-23T07:35:09.033Z,0.30
2022-10-23T07:37:38.778Z,0.30
2022-10-23T07:40:06.439Z,0.40
2022-10-23T07:42:39.599Z,0.30
2022-10-23T07:45:07.984Z,0.70
2022-10-23T07:47:37.501Z,0.30
2022-10-23T07:50:04.339Z,0.47
2022-10-23T07:52:34.977Z,0.60
2022-10-23T07:55:13.695Z,0.50
2022-10-23T07:57:47.130Z,0.70
2022-10-23T08:00:35.514Z,0.50
2022-10-23T08:03:12.201Z,0.50
2022-10-23T08:05:39.229Z,0.70
2022-10-23T08:08:05.764Z,0.38
2022-10-23T08:10:32.573Z,0.65
2022-10-23T08:12:59.663Z,0.40
2022-10-23T08:15:51.855Z,0.35
2022-10-23T08:18:40.948Z,0.40
2022-10-23T08:21:07.584Z,0.55
2022-10-23T08:23:34.262Z,0.40
2022-10-23T08:26:02.537Z,0.45
2022-10-23T08:28:32.393Z,0.88
2022-10-23T08:31:07.754Z,0.55
2022-10-23T08:33:34.396Z,0.40
2022-10-23T08:36:00.986Z,0.50
2022-10-23T08:38:32.086Z,0.50
2022-10-23T08:40:59.564Z,0.43
2022-10-23T08:43:48.015Z,0.40
2022-10-23T08:46:35.906Z,0.68
2022-10-23T08:49:44.134Z,0.60
2022-10-23T08:52:30.289Z,0.55
2022-10-23T08:55:40.621Z,0.50
2022-10-23T08:58:17.143Z,0.40
2022-10-23T09:00:44.806Z,0.47
2022-10-23T09:03:13.049Z,0.45
2022-10-23T09:05:57.183Z,0.30
2022-10-23T09:08:36.455Z,0.50
2022-10-23T09:11:19.743Z,0.70
2022-10-23T09:14:01.239Z,0.40
2022-10-23T09:16:46.259Z,0.80
2022-10-23T09:19:17.491Z,0.52
2022-10-23T09:21:49.031Z,0.77
2022-10-23T09:24:17.947Z,0.45
2022-10-23T09:26:50.874Z,0.50
2022-10-23T09:29:27.605Z,0.47
2022-10-23T09:31:56.891Z,0.70
2022-10-23T09:34:26.865Z,0.50
2022-10-23T09:37:00.181Z,0.80
2022-10-23T09:39:30.327Z,0.55
2022-10-23T09:41:58.003Z,0.50
2022-10-23T09:44:28.251Z,0.40
2022-10-23T09:47:08.660Z,0.55
2022-10-23T09:49:35.433Z,0.38
2022-10-23T09:52:22.218Z,0.50
2022-10-23T09:54:53.049Z,0.45
2022-10-23T09:57:41.836Z,0.43
2022-10-23T10:00:14.769Z,0.77
2022-10-23T10:02:43.788Z,0.38
2022-10-23T10:05:38.670Z,0.63
2022-10-23T10:08:26.256Z,0.50
2022-10-23T10:11:12.081Z,0.55
2022-10-23T10:14:04.828Z,0.40
2022-10-23T10:16:55.998Z,0.45
2022-10-23T10:19:22.441Z,0.50
2022-10-23T10:21:58.053Z,0.47
2022-10-23T10:24:34.739Z,0.40
2022-10-23T10:27:21.230Z,0.50
2022-10-23T10:30:18.354Z,0.60
2022-10-23T10:33:04.793Z,0.75
2022-10-23T10:35:41.131Z,0.60
2022-10-23T10:38:10.245Z,0.50
2022-10-23T10:40:45.108Z,0.55
2022-10-23T10:43:17.236Z,0.45
2022-10-23T10:46:09.808Z,0.60
2022-10-23T10:48:46.523Z,0.68
2022-10-23T10:52:03.467Z,0.60
2022-10-23T10:54:34.450Z,0.47
2022-10-23T10:57:08.890Z,0.50
2022-10-23T10:59:42.019Z,0.50
2022-10-23T11:02:28.479Z,0.50
2022-10-23T11:05:15.034Z,0.52
2022-10-23T11:07:54.250Z,0.73
2022-10-23T11:10:21.544Z,0.60
2022-10-23T11:12:48.848Z,0.43
2022-10-23T11:15:19.090Z,0.30
2022-10-23T11:17:53.637Z,0.47
2022-10-23T11:20:38.961Z,0.57
2022-10-23T11:23:38.247Z,0.60
2022-10-23T11:26:26.356Z,0.28
2022-10-23T11:29:13.087Z,0.38
2022-10-23T11:31:52.660Z,0.50
2022-10-23T11:34:53.552Z,0.50
2022-10-23T11:37:21.153Z,0.43
2022-10-23T11:40:21.251Z,0.50
2022-10-23T11:42:50.275Z,0.50
2022-10-23T11:45:45.897Z,0.50
2022-10-23T11:48:15.301Z,0.70
2022-10-23T11:50:44.916Z,0.40
2022-10-23T11:53:30.039Z,0.50
2022-10-23T11:56:16.469Z,0.50
2022-10-23T11:58:49.564Z,0.40
2022-10-23T12:01:20.085Z,0.52
2022-10-23T12:03:58.689Z,0.60
2022-10-23T12:06:32.008Z,0.52
2022-10-23T12:09:06.713Z,0.50
2022-10-23T12:11:44.002Z,0.60
2022-10-23T12:14:29.177Z,0.30
2022-10-23T12:16:56.318Z,0.70
2022-10-23T12:19:25.229Z,0.37
2022-10-23T12:21:54.891Z,0.57
2022-10-23T12:24:40.609Z,0.60
2022-10-23T12:27:22.490Z,0.90
2022-10-23T12:30:07.692Z,0.47
2022-10-23T12:32:44.593Z,0.95
2022-10-23T12:35:39.833Z,0.50
2022-10-23T12:38:20.089Z,0.80
2022-10-23T12:40:52.022Z,0.50
2022-10-23T12:43:31.504Z,0.55
2022-10-23T12:46:05.192Z,0.43
2022-10-23T12:48:33.380Z,0.50
2022-10-23T12:50:59.918Z,0.68
2022-10-23T12:53:26.526Z,0.60
2022-10-23T12:56:01.760Z,0.80
2022-10-23T12:58:31.505Z,0.70
2022-10-23T13:01:04.383Z,1.00
2022-10-23T13:03:32.945Z,0.77
2022-10-23T13:06:01.490Z,0.63
2022-10-23T13:08:40.263Z,0.73
2022-10-23T13:11:26.446Z,0.77
2022-10-23T13:13:55.404Z,0.38
2022-10-23T13:16:24.674Z,0.40
2022-10-23T13:18:51.673Z,0.45
2022-10-23T13:21:22.495Z,0.47
2022-10-23T13:23:50.444Z,0.50
2022-10-23T13:29:00.020Z,0.40
2022-10-23T13:31:26.597Z,0.50
2022-10-23T13:33:59.142Z,0.40
2022-10-23T13:36:27.931Z,0.40
2022-10-23T13:39:10.382Z,0.50
2022-10-23T13:41:40.869Z,0.70
2022-10-23T13:44:09.463Z,0.73
2022-10-23T13:46:35.993Z,0.55
2022-10-23T13:49:02.481Z,0.70
2022-10-23T13:51:31.190Z,0.40
2022-10-23T13:53:58.403Z,0.60
2022-10-23T13:56:26.838Z,0.50
2022-10-23T13:58:54.275Z,0.63
2022-10-23T14:01:26.687Z,0.90
2022-10-23T14:03:54.235Z,0.50
2022-10-23T14:06:23.167Z,0.50
2022-10-23T14:08:49.852Z,0.55
2022-10-23T14:11:18.755Z,0.40
2022-10-23T14:13:47.078Z,0.50
2022-10-23T14:16:15.878Z,0.50
2022-10-23T14:18:42.995Z,0.52
2022-10-23T14:21:15.013Z,0.60
2022-10-23T14:23:41.542Z,0.60
2022-10-23T14:26:10.683Z,0.50
2022-10-23T14:28:37.859Z,0.82
2022-10-23T14:31:12.862Z,0.45
2022-10-23T14:33:40.046Z,0.50
2022-10-23T14:36:07.177Z,0.80
2022-10-23T14:38:33.991Z,0.68
2022-10-23T14:41:00.716Z,0.40
2022-10-23T14:43:27.341Z,0.60
2022-10-23T14:45:53.784Z,0.47
2022-10-23T14:48:20.516Z,0.75
2022-10-23T14:50:48.931Z,0.40
2022-10-23T14:53:16.227Z,0.40
2022-10-23T14:55:42.779Z,0.95
2022-10-23T14:58:09.345Z,0.73
2022-10-23T15:00:35.820Z,0.35
2022-10-23T15:03:02.414Z,0.40
2022-10-23T15:05:29.238Z,0.40
2022-10-23T15:07:55.763Z,0.90
2022-10-23T15:10:22.260Z,1.17
2022-10-23T15:12:48.793Z,1.95
2022-10-23T15:15:15.447Z,1.02
2022-10-23T15:17:41.942Z,1.42
2022-10-23T15:20:08.842Z,0.88
2022-10-23T15:22:35.389Z,0.60
2022-10-23T15:25:01.955Z,0.75
2022-10-23T15:27:28.648Z,0.70
2022-10-23T15:29:55.194Z,0.60
2022-10-23T15:32:21.700Z,0.60
2022-10-23T15:34:48.326Z,0.40
2022-10-23T15:37:15.279Z,0.60
2022-10-23T15:39:41.769Z,0.73
2022-10-23T15:42:09.796Z,0.50
2022-10-23T15:47:02.893Z,0.60
2022-10-23T15:49:29.446Z,0.70
2022-10-23T15:51:56.055Z,0.85
2022-10-23T15:54:23.356Z,1.13
2022-10-23T15:56:52.112Z,1.30
2022-10-23T15:59:22.321Z,1.40
2022-10-23T16:01:49.027Z,1.10
2022-10-23T16:04:15.791Z,1.77
2022-10-23T16:06:43.384Z,1.20
2022-10-23T16:09:10.408Z,1.23
2022-10-23T16:11:38.778Z,0.70
2022-10-23T16:14:05.829Z,1.05
2022-10-23T16:16:33.687Z,0.80
2022-10-23T16:19:01.863Z,0.98
2022-10-23T16:21:31.308Z,1.40
2022-10-23T16:24:00.409Z,1.67
2022-10-23T16:26:28.326Z,1.42
2022-10-23T16:28:56.554Z,1.30
2022-10-23T16:31:24.414Z,0.88
2022-10-23T16:33:52.374Z,1.10
2022-10-23T16:36:19.679Z,1.13
2022-10-23T16:39:16.475Z,1.00
2022-10-23T16:42:01.875Z,1.40
2022-10-23T16:44:48.644Z,1.05
2022-10-23T16:47:15.137Z,0.77
2022-10-23T16:49:41.766Z,1.20
2022-10-23T16:52:08.653Z,0.95
2022-10-23T16:54:35.152Z,1.17
2022-10-23T16:57:01.818Z,1.40
2022-10-23T16:59:28.313Z,3.53
2022-10-23T17:01:54.928Z,3.15
2022-10-23T17:04:21.523Z,2.03
2022-10-23T17:06:48.003Z,0.82
2022-10-23T17:09:15.074Z,0.93
2022-10-23T17:11:44.394Z,1.00
2022-10-23T17:14:15.130Z,1.00
2022-10-23T17:16:45.446Z,0.88
2022-10-23T17:19:33.016Z,0.60
2022-10-23T17:22:03.924Z,0.75
2022-10-23T17:24:30.428Z,0.63
2022-10-23T17:26:56.900Z,0.82
2022-10-23T17:29:23.457Z,1.00
2022-10-23T17:31:50.971Z,0.80
2022-10-23T17:34:20.791Z,1.08
2022-10-23T17:36:49.991Z,0.80
2022-10-23T17:39:22.570Z,0.68
2022-10-23T17:41:49.415Z,0.90
2022-10-23T17:44:15.924Z,0.63
2022-10-23T17:46:42.560Z,0.80
2022-10-23T17:49:10.812Z,0.77
2022-10-23T17:51:38.150Z,0.80
2022-10-23T17:54:07.822Z,0.90
2022-10-23T17:56:35.975Z,1.00
2022-10-23T18:04:00.779Z,1.00
2022-10-23T18:06:30.284Z,1.20
2022-10-23T18:08:57.551Z,1.02
2022-10-23T18:11:30.653Z,1.10
2022-10-23T18:16:26.466Z,1.13
2022-10-23T18:18:53.748Z,1.27
2022-10-23T18:21:24.785Z,1.00
2022-10-23T18:23:53.423Z,1.30
2022-10-23T18:26:27.745Z,0.88
2022-10-23T18:28:56.815Z,1.20
2022-10-23T18:31:24.122Z,1.45
2022-10-23T18:33:55.749Z,1.27
2022-10-23T18:36:25.525Z,1.20
2022-10-23T18:41:43.891Z,1.38
2022-10-23T18:44:16.698Z,1.50
2022-10-23T18:46:43.792Z,1.15
2022-10-23T18:49:10.671Z,0.95
2022-10-23T18:51:38.158Z,1.10
2022-10-23T18:54:08.371Z,1.20
2022-10-23T18:56:35.342Z,1.00
2022-10-23T18:59:03.960Z,0.90
2022-10-23T19:01:31.496Z,1.30
2022-10-23T19:03:59.855Z,1.35
2022-10-23T19:06:26.823Z,1.20
2022-10-23T19:08:54.163Z,0.90
2022-10-23T19:11:22.909Z,1.13
2022-10-23T19:13:49.983Z,0.95
2022-10-23T19:16:39.640Z,1.35
2022-10-23T19:19:22.725Z,1.42
2022-10-23T19:21:50.224Z,1.40
2022-10-23T19:24:21.716Z,1.48
2022-10-23T19:26:48.518Z,1.40
2022-10-23T19:29:20.560Z,1.52
2022-10-23T19:31:48.866Z,1.30
2022-10-23T19:34:17.083Z,1.95
2022-10-23T19:36:43.624Z,1.48
2022-10-23T19:39:10.115Z,1.48
2022-10-23T19:41:36.604Z,1.27
2022-10-23T19:44:03.180Z,1.88
2022-10-23T19:46:29.675Z,1.55
2022-10-23T19:48:57.067Z,1.70
2022-10-23T19:51:23.643Z,1.70
2022-10-23T19:53:50.195Z,1.60
2022-10-23T19:56:16.662Z,1.65
2022-10-23T19:58:43.260Z,1.50
2022-10-23T20:01:12.919Z,2.15
2022-10-23T20:03:43.587Z,1.52
2022-10-23T20:06:15.395Z,2.10
2022-10-23T20:08:42.426Z,1.98
2022-10-23T20:11:10.327Z,2.42
2022-10-23T20:16:04.869Z,1.67
2022-10-23T20:18:31.541Z,1.80
2022-10-23T20:21:01.801Z,1.40
2022-10-23T20:23:28.325Z,2.22
2022-10-23T20:25:54.965Z,2.80
2022-10-23T20:28:21.719Z,1.73
2022-10-23T20:30:48.188Z,1.90
2022-10-23T20:33:14.692Z,1.90
2022-10-23T20:35:42.608Z,2.00
2022-10-23T20:38:09.787Z,1.42
2022-10-23T20:40:36.926Z,1.45
2022-10-23T20:43:04.220Z,1.48
2022-10-23T20:45:30.699Z,1.40
2022-10-23T20:47:57.202Z,1.70
2022-10-23T20:50:24.008Z,2.53
2022-10-23T20:52:51.208Z,1.98
2022-10-23T20:55:18.358Z,1.90
2022-10-23T20:57:45.535Z,1.92
2022-10-23T21:00:12.632Z,1.57
2022-10-23T21:02:39.217Z,1.23
2022-10-23T21:05:06.303Z,1.33
2022-10-23T21:07:32.789Z,1.30
2022-10-23T21:09:59.318Z,1.85
2022-10-23T21:12:25.841Z,2.20
2022-10-23T21:14:53.420Z,2.13
2022-10-23T21:17:20.588Z,2.55
2022-10-23T21:19:47.196Z,1.90
2022-10-23T21:22:13.832Z,1.92
2022-10-23T21:24:40.270Z,2.08
2022-10-23T21:27:06.751Z,1.70
2022-10-23T21:29:33.269Z,2.63
2022-10-23T21:32:00.821Z,1.60
2022-10-23T21:34:28.248Z,1.50
2022-10-23T21:39:45.987Z,2.33
2022-10-23T21:42:13.958Z,1.48
2022-10-23T21:44:40.670Z,2.00
2022-10-23T21:47:07.343Z,1.48
2022-10-23T21:49:33.929Z,1.48
2022-10-23T21:52:00.437Z,1.63
2022-10-23T21:54:27.061Z,1.30
2022-10-23T21:56:53.946Z,1.42
2022-10-23T21:59:23.339Z,1.60
2022-10-23T22:01:50.218Z,1.95
2022-10-23T22:04:18.668Z,1.80
2022-10-23T22:06:47.499Z,2.50
2022-10-23T22:09:16.189Z,2.83
2022-10-23T22:11:42.764Z,2.17
2022-10-23T22:14:09.383Z,2.00
2022-10-23T22:16:35.975Z,1.73
2022-10-23T22:19:02.889Z,1.60
2022-10-23T22:21:30.591Z,1.95
2022-10-23T22:23:59.292Z,2.53
2022-10-23T22:26:45.134Z,2.22
2022-10-23T22:29:15.161Z,2.70
2022-10-23T22:31:44.268Z,2.55
2022-10-23T22:34:27.082Z,2.35
2022-10-23T22:37:05.022Z,2.13
2022-10-23T22:39:31.557Z,2.50
2022-10-23T22:41:58.077Z,2.65
2022-10-23T22:44:24.546Z,1.67
2022-10-23T22:46:51.055Z,2.42
2022-10-23T22:49:17.695Z,2.08
2022-10-23T22:51:44.238Z,2.30
2022-10-23T22:54:11.166Z,2.00
2022-10-23T22:56:37.749Z,2.33
2022-10-23T22:59:05.552Z,1.90
2022-10-23T23:01:37.591Z,3.15
2022-10-23T23:04:14.028Z,2.35
2022-10-23T23:06:50.915Z,2.30
2022-10-23T23:09:18.239Z,2.30
2022-10-23T23:11:51.246Z,1.73
2022-10-23T23:14:22.038Z,4.43
2022-10-23T23:16:50.455Z,3.97
2022-10-23T23:19:16.942Z,2.00
2022-10-23T23:21:43.579Z,2.25
2022-10-23T23:24:11.664Z,2.03
2022-10-23T23:29:04.873Z,1.65
2022-10-23T23:31:31.509Z,2.40
2022-10-23T23:33:58.194Z,2.17
2022-10-23T23:36:26.832Z,2.47
2022-10-23T23:38:54.003Z,2.53
2022-10-23T23:41:21.388Z,1.73
2022-10-23T23:43:49.103Z,1.90
2022-10-23T23:46:16.949Z,1.83
2022-10-23T23:48:43.545Z,1.70
2022-10-23T23:51:09.985Z,2.30
2022-10-23T23:53:36.667Z,1.35
2022-10-23T23:56:03.515Z,1.73
2022-10-23T23:58:30.021Z,1.80
